Buoy 44893

sailwx.info

Track history (hours):
 
Tides and Currents Weather Stations Pressure Air Temp Water Temp Dewpoint Dewpoint Depression Visibility Wind Speed Wind Dir Waves Ship Positions

Drifting buoy 44893

Last reported at 2018-Jan-21 11:00 UTC. Time now 2018-Jan-21 14:48 UTC.
Position N 32°44' W 061°48'.

Water temperature 21.8 ° C

Date/timePositionNaut miles runAvg speedWind from/ knotsBaromVisibWave heightAir tempDewpointWater temp
2018-Jan-21 11:00N 32°44' W 061°48'0 0.0 21.8
2018-Jan-21 10:45N 32°44' W 061°48'1 1.6 21.8
2018-Jan-21 10:00N 32°45' W 061°47'0 0.0 21.8
2018-Jan-21 09:45N 32°45' W 061°47'1 2.3 21.8
2018-Jan-21 09:15N 32°46' W 061°46'0 0.0 21.8
2018-Jan-21 09:00N 32°46' W 061°46'1 2.0 21.8
2018-Jan-21 08:45N 32°46' W 061°45'0 0.0 21.8
2018-Jan-21 07:15N 32°46' W 061°45'0 0.0 21.8
2018-Jan-21 07:00N 32°46' W 061°45'3 0.6 21.8
2018-Jan-21 02:30N 32°46' W 061°42'0 0.0 21.9
2018-Jan-21 02:15N 32°46' W 061°42'2 2.0 21.9
2018-Jan-21 01:30N 32°46' W 061°40'0 0.0 21.9
2018-Jan-21 01:15N 32°46' W 061°40'0 0.0 21.9
2018-Jan-21 01:00N 32°46' W 061°40'1 4.0 21.9
2018-Jan-21 00:45N 32°46' W 061°39'1 0.8 21.9
2018-Jan-20 23:45N 32°46' W 061°40'2 6.5 22.0
2018-Jan-20 23:30N 32°46' W 061°38'1 4.0 21.9
2018-Jan-20 23:15N 32°46' W 061°37'0 0.0 21.9
2018-Jan-20 22:00N 32°46' W 061°37'0 0.0 22.0
2018-Jan-20 21:45N 32°46' W 061°37'1 4.0 22.0
2018-Jan-20 21:30N 32°46' W 061°35'1 0.5 22.0
2018-Jan-20 20:30N 32°46' W 061°35'1 4.0 22.0
2018-Jan-20 20:15N 32°46' W 061°34'1 0.3 22.0
2018-Jan-20 18:45N 32°46' W 061°33'0 0.0 22.0
2018-Jan-20 18:30N 32°46' W 061°33'3 0.9 22.1
2018-Jan-20 15:15N 32°47' W 061°30'1 3.1 22.1
2018-Jan-20 15:00N 32°47' W 061°29'0 0.0 22.1
2018-Jan-20 14:15N 32°47' W 061°29'2 2.1 22.1
2018-Jan-20 13:30N 32°49' W 061°28'0 0.0 22.1
2018-Jan-20 13:15N 32°49' W 061°28'1 0.8 22.1
2018-Jan-20 12:30N 32°48' W 061°28'1 1.6 22.1
2018-Jan-20 12:00N 32°49' W 061°28'0 0.0 22.1
2018-Jan-20 11:45N 32°49' W 061°28'1 0.4 22.1
2018-Jan-20 10:15N 32°48' W 061°28'1 1.6 22.2
2018-Jan-20 09:45N 32°49' W 061°27'1 1.3 22.2
2018-Jan-20 09:00N 32°49' W 061°26'0 0.0 22.2
2018-Jan-20 08:15N 32°49' W 061°26'0 0.0 22.1
2018-Jan-20 08:00N 32°49' W 061°26'1 1.6 22.2
2018-Jan-20 07:30N 32°49' W 061°26'1 5.2 22.2
2018-Jan-20 07:15N 32°50' W 061°26'0 0.0 22.1
2018-Jan-20 02:45N 32°50' W 061°26'0 0.0 22.1
2018-Jan-20 02:00N 32°50' W 061°26'1 3.1 22.2
2018-Jan-20 01:45N 32°51' W 061°25'0 0.0 22.2
2018-Jan-20 01:15N 32°51' W 061°25'1 3.1 22.2
2018-Jan-20 01:00N 32°52' W 061°26'0 0.0 22.2
2018-Jan-20 00:15N 32°52' W 061°26'1 3.1 22.1
2018-Jan-20 00:00N 32°51' W 061°25'0 0.0 22.1
2018-Jan-19 23:45N 32°51' W 061°25'1 3.1 22.1
2018-Jan-19 23:30N 32°52' W 061°26'0 0.0 22.1
2018-Jan-19 23:15N 32°52' W 061°26'1 1.0 22.1
2018-Jan-19 22:30N 32°51' W 061°25'1 1.2 22.1
2018-Jan-19 22:00N 32°52' W 061°25'0 0.0 22.1
2018-Jan-19 21:45N 32°52' W 061°25'0 0.0 22.1
2018-Jan-19 21:00N 32°52' W 061°25'0 0.0 22.1
2018-Jan-19 20:45N 32°52' W 061°25'1 3.1 22.1
2018-Jan-19 20:30N 32°52' W 061°26'0 0.0 22.1
2018-Jan-19 20:15N 32°52' W 061°26'1 0.5 22.1
2018-Jan-19 19:00N 32°52' W 061°26'2 9.8 22.1
2018-Jan-19 18:45N 32°54' W 061°26'1 0.2 22.1
2018-Jan-19 15:30N 32°53' W 061°26'0 0.0 22.0
2018-Jan-19 14:30N 32°53' W 061°26'0 0.0 21.9
2018-Jan-19 14:00N 32°53' W 061°26'1 4.7 21.9
2018-Jan-19 13:45N 32°54' W 061°28'0 0.0 21.9
2018-Jan-19 13:00N 32°54' W 061°28'0 0.0 21.9
2018-Jan-19 12:45N 32°54' W 061°28'0 0.0 21.9
2018-Jan-19 12:30N 32°54' W 061°28'0 0.0 21.9
2018-Jan-19 12:15N 32°54' W 061°28'2 6.3 21.9
2018-Jan-19 12:00N 32°55' W 061°29'0 0.0 21.9
2018-Jan-19 10:45N 32°55' W 061°29'0 0.0 21.8
2018-Jan-19 10:30N 32°55' W 061°29'1 3.1 21.8
2018-Jan-19 10:15N 32°56' W 061°29'1 0.5 21.8
2018-Jan-19 09:15N 32°56' W 061°29'1 4.7 21.8
2018-Jan-19 09:00N 32°56' W 061°30'1 4.7 21.8
2018-Jan-19 08:45N 32°56' W 061°29'1 4.7 21.8
2018-Jan-19 08:30N 32°56' W 061°30'0 0.0 21.8
2018-Jan-19 07:45N 32°56' W 061°30'313.0 21.8
2018-Jan-19 07:30N 32°58' W 061°34'1 0.1 21.8
2018-Jan-19 02:15N 32°58' W 061°34'1 3.1 21.9
2018-Jan-19 02:00N 32°58' W 061°34'1 1.0 21.9
2018-Jan-19 01:30N 32°58' W 061°34'0 0.0 22.0
2018-Jan-19 01:15N 32°58' W 061°34'1 0.7 22.0
2018-Jan-19 00:30N 32°58' W 061°35'1 1.0 22.0
2018-Jan-18 23:45N 32°59' W 061°34'1 2.0 22.0
2018-Jan-18 23:30N 32°59' W 061°35'0 0.0 22.0
2018-Jan-18 23:15N 32°59' W 061°35'0 0.0 22.0
2018-Jan-18 23:00N 32°59' W 061°35'0 0.0 22.0
2018-Jan-18 22:30N 32°59' W 061°35'1 3.1 22.0
2018-Jan-18 22:15N 32°58' W 061°34'0 0.0 22.0
2018-Jan-18 22:00N 32°58' W 061°34'0 0.0 22.0
2018-Jan-18 21:45N 32°58' W 061°34'1 2.0 22.0
2018-Jan-18 21:30N 32°58' W 061°35'1 2.0 22.0
2018-Jan-18 21:15N 32°58' W 061°34'2 3.1 22.0
2018-Jan-18 20:45N 32°57' W 061°35'0 0.0 22.0
2018-Jan-18 19:15N 32°57' W 061°35'414.4 22.0
2018-Jan-18 19:00N 32°53' W 061°35'0 0.0 22.0
2018-Jan-18 17:30N 32°53' W 061°35'2 0.7 22.0
2018-Jan-18 15:00N 32°52' W 061°35'0 0.0 22.2
2018-Jan-18 14:45N 32°52' W 061°35'1 1.0 22.4
2018-Jan-18 14:15N 32°52' W 061°35'2 6.3 22.6
2018-Jan-18 14:00N 32°50' W 061°34'0 0.0 22.6
2018-Jan-18 13:15N 32°50' W 061°34'2 2.4 22.6
2018-Jan-18 12:30N 32°49' W 061°34'2 6.3 22.6
2018-Jan-18 12:15N 32°47' W 061°33'0 0.0 22.6
2018-Jan-18 11:15N 32°47' W 061°33'1 3.1 22.6
2018-Jan-18 11:00N 32°47' W 061°32'0 0.0 22.6
2018-Jan-18 10:45N 32°47' W 061°32'2 7.7 22.6
2018-Jan-18 10:30N 32°46' W 061°31'2 1.9 22.7
2018-Jan-18 09:30N 32°44' W 061°29'0 0.0 22.7
2018-Jan-18 09:15N 32°44' W 061°29'0 0.0 22.7
2018-Jan-18 09:00N 32°44' W 061°29'7 5.4 22.7
2018-Jan-18 07:45N 32°41' W 061°22'0 0.0 22.7
2018-Jan-18 07:30N 32°41' W 061°22'1 0.2 22.7
2018-Jan-18 02:30N 32°42' W 061°20'0 0.0 22.6
2018-Jan-18 02:00N 32°42' W 061°20'1 4.7 22.6
2018-Jan-18 01:45N 32°41' W 061°19'0 0.0 22.6
2018-Jan-18 01:00N 32°41' W 061°19'1 2.0 22.5
2018-Jan-18 00:45N 32°41' W 061°19'0 0.0 22.5
2018-Jan-18 00:15N 32°41' W 061°19'1 4.7 22.5
2018-Jan-18 00:00N 32°42' W 061°17'0 0.0 22.5
2018-Jan-17 23:30N 32°42' W 061°17'2 6.3 22.5
2018-Jan-17 23:15N 32°41' W 061°16'0 0.0 22.5
2018-Jan-17 22:15N 32°41' W 061°16'2 6.3 22.5
2018-Jan-17 22:00N 32°40' W 061°15'1 3.1 22.5
2018-Jan-17 21:45N 32°40' W 061°16'1 1.6 22.5
2018-Jan-17 21:15N 32°40' W 061°15'2 6.3 22.3
2018-Jan-17 21:00N 32°38' W 061°14'0 0.0 22.2
2018-Jan-17 19:30N 32°38' W 061°14'414.1 21.8
2018-Jan-17 19:15N 32°37' W 061°10'0 0.0 21.7
2018-Jan-17 17:45N 32°37' W 061°10'417.7 21.6
2018-Jan-17 17:30N 32°35' W 061°05'0 0.0 21.6
2018-Jan-17 15:15N 32°35' W 061°05'2 2.6 21.5
2018-Jan-17 14:30N 32°34' W 061°04'0 0.0 21.5
2018-Jan-17 13:45N 32°34' W 061°04'0 0.0 21.4
2018-Jan-17 13:30N 32°34' W 061°04'1 2.4 21.4
2018-Jan-17 13:00N 32°33' W 061°02'1 2.0 21.4
2018-Jan-17 12:45N 32°33' W 061°02'0 0.0 21.4
2018-Jan-17 12:30N 32°33' W 061°02'2 7.7 21.4
2018-Jan-17 12:15N 32°32' W 061°00'0 0.0 21.4
2018-Jan-17 11:45N 32°32' W 061°00'0 0.0 21.4
2018-Jan-17 11:30N 32°32' W 061°00'1 4.0 21.4
2018-Jan-17 11:15N 32°32' W 060°59'2 3.3 21.4
2018-Jan-17 10:45N 32°31' W 060°57'0 0.0 21.4
2018-Jan-17 10:00N 32°31' W 060°57'0 0.0 21.4
2018-Jan-17 09:45N 32°31' W 060°57'312.4 21.4
2018-Jan-17 09:30N 32°29' W 060°54'0 0.0 21.4
2018-Jan-17 08:00N 32°29' W 060°54'520.6 21.4
2018-Jan-17 07:45N 32°27' W 060°49'0 0.0 21.4
2018-Jan-17 06:15N 32°27' W 060°49'0 0.0 21.4
2018-Jan-17 02:15N 32°27' W 060°49'1 5.2 21.6
2018-Jan-17 02:00N 32°26' W 060°48'1 0.7 21.6
2018-Jan-17 01:15N 32°26' W 060°47'0 0.0 21.6
2018-Jan-17 01:00N 32°26' W 060°47'1 2.4 21.6
2018-Jan-17 00:30N 32°25' W 060°46'0 0.0 21.6
2018-Jan-17 00:15N 32°25' W 060°46'1 2.4 21.6
2018-Jan-17 00:00N 32°25' W 060°46'1 1.0 21.6
2018-Jan-16 23:30N 32°25' W 060°47'0 0.0 21.5
2018-Jan-16 23:15N 32°25' W 060°47'2 2.1 21.5
2018-Jan-16 22:30N 32°23' W 060°46'1 5.2 21.6
2018-Jan-16 22:15N 32°22' W 060°45'0 0.0 21.6
2018-Jan-16 21:45N 32°22' W 060°45'312.6 21.6
2018-Jan-16 21:30N 32°20' W 060°43'0 0.0 21.6
2018-Jan-16 20:45N 32°20' W 060°43'11 0.8 21.5
2018-Jan-16 08:00N 32°11' W 060°36'0 0.0 21.9
2018-Jan-16 06:30N 32°11' W 060°36'312.7 21.9
2018-Jan-16 06:15N 32°08' W 060°35'0 0.0 21.9
2018-Jan-16 02:30N 32°08' W 060°35'0 0.0 21.9
2018-Jan-16 01:45N 32°08' W 060°35'1 3.1 21.9
2018-Jan-16 01:30N 32°07' W 060°34'0 0.0 21.9
2018-Jan-16 01:00N 32°07' W 060°34'1 2.0 21.9
2018-Jan-16 00:45N 32°07' W 060°35'1 2.4 21.9
2018-Jan-16 00:15N 32°07' W 060°34'1 2.0 21.9
2018-Jan-16 00:00N 32°07' W 060°34'1 2.0 21.9
2018-Jan-15 23:45N 32°07' W 060°34'0 0.0 21.9
2018-Jan-15 23:30N 32°07' W 060°34'1 1.6 21.9
2018-Jan-15 23:00N 32°06' W 060°34'1 2.0 21.9
2018-Jan-15 22:45N 32°06' W 060°34'1 4.7 21.9
2018-Jan-15 22:30N 32°05' W 060°35'0 0.0 21.9
2018-Jan-15 22:00N 32°05' W 060°35'0 0.0 21.9
2018-Jan-15 21:45N 32°05' W 060°35'2 3.9 21.9
2018-Jan-15 21:15N 32°04' W 060°33'0 0.0 21.9
2018-Jan-15 19:45N 32°04' W 060°33'3 0.7 21.9
2018-Jan-15 15:15N 32°02' W 060°31'0 0.0 21.9
2018-Jan-15 15:00N 32°02' W 060°31'1 1.0 21.9
2018-Jan-15 14:15N 32°01' W 060°30'1 0.7 21.9
2018-Jan-15 13:30N 32°01' W 060°29'0 0.0 21.9
2018-Jan-15 13:00N 32°01' W 060°29'1 2.4 21.8
2018-Jan-15 12:45N 32°02' W 060°29'1 2.4 21.8
2018-Jan-15 12:30N 32°01' W 060°29'1 2.4 21.8
2018-Jan-15 12:15N 32°02' W 060°29'1 0.8 21.8
2018-Jan-15 11:15N 32°01' W 060°29'1 2.0 21.8
2018-Jan-15 11:00N 32°01' W 060°29'1 2.4 21.8
2018-Jan-15 10:45N 32°01' W 060°29'1 3.1 21.8
2018-Jan-15 10:30N 32°01' W 060°29'1 0.3 21.8
2018-Jan-15 09:00N 32°01' W 060°29'0 0.0 21.8
2018-Jan-15 08:30N 32°01' W 060°29'1 3.1 21.8
2018-Jan-15 08:15N 32°01' W 060°29'1 0.5 21.8
2018-Jan-15 06:45N 32°01' W 060°29'2 7.5 21.8
2018-Jan-15 06:30N 31°59' W 060°29'0 0.0 21.8
2018-Jan-15 02:00N 31°59' W 060°29'1 3.1 21.7
2018-Jan-15 01:45N 32°00' W 060°28'0 0.0 21.7
2018-Jan-15 01:15N 32°00' W 060°28'1 3.1 21.7
2018-Jan-15 01:00N 31°59' W 060°29'0 0.0 21.6
2018-Jan-15 00:30N 31°59' W 060°29'1 2.4 21.4
2018-Jan-15 00:15N 32°00' W 060°29'0 0.0 21.4
2018-Jan-15 00:00N 32°00' W 060°29'0 0.0 21.4
2018-Jan-14 23:30N 32°00' W 060°29'0 0.0 21.3
2018-Jan-14 23:15N 32°00' W 060°29'1 2.6 21.4
2018-Jan-14 22:45N 31°59' W 060°28'0 0.0 21.3
2018-Jan-14 22:30N 31°59' W 060°28'0 0.0 21.3
2018-Jan-14 22:15N 31°59' W 060°28'0 0.0 21.3
2018-Jan-14 22:00N 31°59' W 060°28'0 0.0 21.3
2018-Jan-14 21:45N 31°59' W 060°28'1 0.6 21.3
2018-Jan-14 20:45N 31°58' W 060°28'0 0.0 21.4
2018-Jan-14 20:00N 31°58' W 060°28'1 2.4 21.4
2018-Jan-14 19:45N 31°58' W 060°28'2 1.4 21.4
2018-Jan-14 18:15N 31°56' W 060°27'0 0.0 21.3
2018-Jan-14 18:00N 31°56' W 060°27'1 0.2 21.4
2018-Jan-14 15:30N 31°56' W 060°26'0 0.0 21.4
2018-Jan-14 14:45N 31°56' W 060°26'1 3.1 21.4
2018-Jan-14 14:30N 31°55' W 060°26'0 0.0 21.4
2018-Jan-14 14:00N 31°55' W 060°26'0 0.0 21.4
2018-Jan-14 13:45N 31°55' W 060°26'1 0.8 21.4
2018-Jan-14 13:00N 31°55' W 060°26'0 0.0 21.4
2018-Jan-14 12:45N 31°55' W 060°26'0 0.0 21.4
2018-Jan-14 12:15N 31°55' W 060°26'0 0.0 21.4
2018-Jan-14 11:30N 31°55' W 060°26'1 2.4 21.4
2018-Jan-14 11:15N 31°54' W 060°26'2 7.5 21.4
2018-Jan-14 11:00N 31°56' W 060°26'3 1.9 21.4
2018-Jan-14 09:30N 31°53' W 060°25'1 0.6 21.4
2018-Jan-14 08:30N 31°53' W 060°25'0 0.0 21.4
2018-Jan-14 08:00N 31°53' W 060°25'0 0.0 21.4
2018-Jan-14 07:45N 31°53' W 060°25'0 0.0 21.4
2018-Jan-14 07:00N 31°53' W 060°25'312.0 21.4
2018-Jan-14 06:45N 31°50' W 060°25'0 0.0 21.4
2018-Jan-14 02:15N 31°50' W 060°25'1 0.7 21.4
2018-Jan-14 01:30N 31°50' W 060°24'1 1.4 21.4
2018-Jan-14 00:45N 31°50' W 060°25'0 0.0 21.4
2018-Jan-14 00:30N 31°50' W 060°25'1 1.6 21.4
2018-Jan-14 00:00N 31°49' W 060°25'0 0.0 21.4
2018-Jan-13 23:45N 31°49' W 060°25'1 1.7 21.4
2018-Jan-13 23:00N 31°48' W 060°25'0 0.0 21.4
2018-Jan-13 22:45N 31°48' W 060°25'15 0.5 21.5
2018-Jan-12 15:15N 31°46' W 060°43'0 0.0 21.4
2018-Jan-12 14:45N 31°46' W 060°43'1 2.0 21.4
2018-Jan-12 14:30N 31°46' W 060°43'0 0.0 21.4
2018-Jan-12 13:45N 31°46' W 060°43'0 0.0 21.4
2018-Jan-12 13:30N 31°46' W 060°43'1 2.4 21.4
2018-Jan-12 13:15N 31°47' W 060°43'1 2.4 21.4
2018-Jan-12 13:00N 31°46' W 060°43'0 0.0 21.4
2018-Jan-12 12:45N 31°46' W 060°43'2 1.6 21.4
2018-Jan-12 11:45N 31°47' W 060°45'1 1.0 21.4
2018-Jan-12 10:30N 31°48' W 060°45'0 0.0 21.4
2018-Jan-12 10:00N 31°48' W 060°45'1 1.2 21.4
2018-Jan-12 09:00N 31°49' W 060°46'0 0.0 21.4
2018-Jan-12 08:45N 31°49' W 060°46'3 2.1 21.4
2018-Jan-12 07:15N 31°51' W 060°49'0 0.0 21.4
2018-Jan-12 07:00N 31°51' W 060°49'0 0.0 21.4
2018-Jan-12 02:15N 31°51' W 060°49'1 4.1 21.5
2018-Jan-12 02:00N 31°51' W 060°50'1 1.0 21.5
2018-Jan-12 01:15N 31°52' W 060°49'1 0.7 21.5
2018-Jan-12 00:30N 31°52' W 060°49'0 0.0 21.5
2018-Jan-11 23:45N 31°52' W 060°49'1 4.1 21.5
2018-Jan-11 23:30N 31°52' W 060°50'0 0.0 21.5
2018-Jan-11 23:15N 31°52' W 060°50'1 0.5 21.5
2018-Jan-11 22:00N 31°52' W 060°50'1 2.4 21.5
2018-Jan-11 21:45N 31°52' W 060°50'0 0.0 21.5
2018-Jan-11 21:30N 31°52' W 060°50'0 0.0 21.5
2018-Jan-11 20:30N 31°52' W 060°50'1 5.2 21.5
2018-Jan-11 20:15N 31°53' W 060°50'2 1.4 21.5
2018-Jan-11 18:45N 31°55' W 060°52'0 0.0 21.5
2018-Jan-11 15:00N 31°55' W 060°52'1 2.4 21.4
2018-Jan-11 14:45N 31°55' W 060°52'0 0.0 21.4
2018-Jan-11 14:00N 31°55' W 060°52'0 0.0 21.4
2018-Jan-11 13:45N 31°55' W 060°52'0 0.0 21.4
2018-Jan-11 13:30N 31°55' W 060°52'1 2.0 21.4
2018-Jan-11 13:15N 31°55' W 060°52'0 0.0 21.4
2018-Jan-11 13:00N 31°55' W 060°52'0 0.0 21.4
2018-Jan-11 12:30N 31°55' W 060°52'0 0.0 21.3
2018-Jan-11 12:15N 31°55' W 060°52'1 2.4 21.4
2018-Jan-11 12:00N 31°56' W 060°52'0 0.0 21.4
2018-Jan-11 11:45N 31°56' W 060°52'0 0.0 21.4
2018-Jan-11 11:00N 31°56' W 060°52'   21.4
Track history (hours):
 
Tides and Currents Weather Stations Pressure Air Temp Water Temp Dewpoint Dewpoint Depression Visibility Wind Speed Wind Dir Waves Ship Positions

Drifting buoy 44893

Last reported at 2018-Jan-21 11:00 UTC. Time now 2018-Jan-21 14:48 UTC.
Position N 32°44' W 061°48'.

Water temperature 21.8 ° C

Date/timePositionNaut miles runAvg speedWind from/ knotsBaromVisibWave heightAir tempDewpointWater temp
2018-Jan-21 11:00N 32°44' W 061°48'0 0.0 21.8
2018-Jan-21 10:45N 32°44' W 061°48'1 1.6 21.8
2018-Jan-21 10:00N 32°45' W 061°47'0 0.0 21.8
2018-Jan-21 09:45N 32°45' W 061°47'1 2.3 21.8
2018-Jan-21 09:15N 32°46' W 061°46'0 0.0 21.8
2018-Jan-21 09:00N 32°46' W 061°46'1 2.0 21.8
2018-Jan-21 08:45N 32°46' W 061°45'0 0.0 21.8
2018-Jan-21 07:15N 32°46' W 061°45'0 0.0 21.8
2018-Jan-21 07:00N 32°46' W 061°45'3 0.6 21.8
2018-Jan-21 02:30N 32°46' W 061°42'0 0.0 21.9
2018-Jan-21 02:15N 32°46' W 061°42'2 2.0 21.9
2018-Jan-21 01:30N 32°46' W 061°40'0 0.0 21.9
2018-Jan-21 01:15N 32°46' W 061°40'0 0.0 21.9
2018-Jan-21 01:00N 32°46' W 061°40'1 4.0 21.9
2018-Jan-21 00:45N 32°46' W 061°39'1 0.8 21.9
2018-Jan-20 23:45N 32°46' W 061°40'2 6.5 22.0
2018-Jan-20 23:30N 32°46' W 061°38'1 4.0 21.9
2018-Jan-20 23:15N 32°46' W 061°37'0 0.0 21.9
2018-Jan-20 22:00N 32°46' W 061°37'0 0.0 22.0
2018-Jan-20 21:45N 32°46' W 061°37'1 4.0 22.0
2018-Jan-20 21:30N 32°46' W 061°35'1 0.5 22.0
2018-Jan-20 20:30N 32°46' W 061°35'1 4.0 22.0
2018-Jan-20 20:15N 32°46' W 061°34'1 0.3 22.0
2018-Jan-20 18:45N 32°46' W 061°33'0 0.0 22.0
2018-Jan-20 18:30N 32°46' W 061°33'3 0.9 22.1
2018-Jan-20 15:15N 32°47' W 061°30'1 3.1 22.1
2018-Jan-20 15:00N 32°47' W 061°29'0 0.0 22.1
2018-Jan-20 14:15N 32°47' W 061°29'2 2.1 22.1
2018-Jan-20 13:30N 32°49' W 061°28'0 0.0 22.1
2018-Jan-20 13:15N 32°49' W 061°28'1 0.8 22.1
2018-Jan-20 12:30N 32°48' W 061°28'1 1.6 22.1
2018-Jan-20 12:00N 32°49' W 061°28'0 0.0 22.1
2018-Jan-20 11:45N 32°49' W 061°28'1 0.4 22.1
2018-Jan-20 10:15N 32°48' W 061°28'1 1.6 22.2
2018-Jan-20 09:45N 32°49' W 061°27'1 1.3 22.2
2018-Jan-20 09:00N 32°49' W 061°26'0 0.0 22.2
2018-Jan-20 08:15N 32°49' W 061°26'0 0.0 22.1
2018-Jan-20 08:00N 32°49' W 061°26'1 1.6 22.2
2018-Jan-20 07:30N 32°49' W 061°26'1 5.2 22.2
2018-Jan-20 07:15N 32°50' W 061°26'0 0.0 22.1
2018-Jan-20 02:45N 32°50' W 061°26'0 0.0 22.1
2018-Jan-20 02:00N 32°50' W 061°26'1 3.1 22.2
2018-Jan-20 01:45N 32°51' W 061°25'0 0.0 22.2
2018-Jan-20 01:15N 32°51' W 061°25'1 3.1 22.2
2018-Jan-20 01:00N 32°52' W 061°26'0 0.0 22.2
2018-Jan-20 00:15N 32°52' W 061°26'1 3.1 22.1
2018-Jan-20 00:00N 32°51' W 061°25'0 0.0 22.1
2018-Jan-19 23:45N 32°51' W 061°25'1 3.1 22.1
2018-Jan-19 23:30N 32°52' W 061°26'0 0.0 22.1
2018-Jan-19 23:15N 32°52' W 061°26'1 1.0 22.1
2018-Jan-19 22:30N 32°51' W 061°25'1 1.2 22.1
2018-Jan-19 22:00N 32°52' W 061°25'0 0.0 22.1
2018-Jan-19 21:45N 32°52' W 061°25'0 0.0 22.1
2018-Jan-19 21:00N 32°52' W 061°25'0 0.0 22.1
2018-Jan-19 20:45N 32°52' W 061°25'1 3.1 22.1
2018-Jan-19 20:30N 32°52' W 061°26'0 0.0 22.1
2018-Jan-19 20:15N 32°52' W 061°26'1 0.5 22.1
2018-Jan-19 19:00N 32°52' W 061°26'2 9.8 22.1
2018-Jan-19 18:45N 32°54' W 061°26'1 0.2 22.1
2018-Jan-19 15:30N 32°53' W 061°26'0 0.0 22.0
2018-Jan-19 14:30N 32°53' W 061°26'0 0.0 21.9
2018-Jan-19 14:00N 32°53' W 061°26'1 4.7 21.9
2018-Jan-19 13:45N 32°54' W 061°28'0 0.0 21.9
2018-Jan-19 13:00N 32°54' W 061°28'0 0.0 21.9
2018-Jan-19 12:45N 32°54' W 061°28'0 0.0 21.9
2018-Jan-19 12:30N 32°54' W 061°28'0 0.0 21.9
2018-Jan-19 12:15N 32°54' W 061°28'2 6.3 21.9
2018-Jan-19 12:00N 32°55' W 061°29'0 0.0 21.9
2018-Jan-19 10:45N 32°55' W 061°29'0 0.0 21.8
2018-Jan-19 10:30N 32°55' W 061°29'1 3.1 21.8
2018-Jan-19 10:15N 32°56' W 061°29'1 0.5 21.8
2018-Jan-19 09:15N 32°56' W 061°29'1 4.7 21.8
2018-Jan-19 09:00N 32°56' W 061°30'1 4.7 21.8
2018-Jan-19 08:45N 32°56' W 061°29'1 4.7 21.8
2018-Jan-19 08:30N 32°56' W 061°30'0 0.0 21.8
2018-Jan-19 07:45N 32°56' W 061°30'313.0 21.8
2018-Jan-19 07:30N 32°58' W 061°34'1 0.1 21.8
2018-Jan-19 02:15N 32°58' W 061°34'1 3.1 21.9
2018-Jan-19 02:00N 32°58' W 061°34'1 1.0 21.9
2018-Jan-19 01:30N 32°58' W 061°34'0 0.0 22.0
2018-Jan-19 01:15N 32°58' W 061°34'1 0.7 22.0
2018-Jan-19 00:30N 32°58' W 061°35'1 1.0 22.0
2018-Jan-18 23:45N 32°59' W 061°34'1 2.0 22.0
2018-Jan-18 23:30N 32°59' W 061°35'0 0.0 22.0
2018-Jan-18 23:15N 32°59' W 061°35'0 0.0 22.0
2018-Jan-18 23:00N 32°59' W 061°35'0 0.0 22.0
2018-Jan-18 22:30N 32°59' W 061°35'1 3.1 22.0
2018-Jan-18 22:15N 32°58' W 061°34'0 0.0 22.0
2018-Jan-18 22:00N 32°58' W 061°34'0 0.0 22.0
2018-Jan-18 21:45N 32°58' W 061°34'1 2.0 22.0
2018-Jan-18 21:30N 32°58' W 061°35'1 2.0 22.0
2018-Jan-18 21:15N 32°58' W 061°34'2 3.1 22.0
2018-Jan-18 20:45N 32°57' W 061°35'0 0.0 22.0
2018-Jan-18 19:15N 32°57' W 061°35'414.4 22.0
2018-Jan-18 19:00N 32°53' W 061°35'0 0.0 22.0
2018-Jan-18 17:30N 32°53' W 061°35'2 0.7 22.0
2018-Jan-18 15:00N 32°52' W 061°35'0 0.0 22.2
2018-Jan-18 14:45N 32°52' W 061°35'1 1.0 22.4
2018-Jan-18 14:15N 32°52' W 061°35'2 6.3 22.6
2018-Jan-18 14:00N 32°50' W 061°34'0 0.0 22.6
2018-Jan-18 13:15N 32°50' W 061°34'2 2.4 22.6
2018-Jan-18 12:30N 32°49' W 061°34'2 6.3 22.6
2018-Jan-18 12:15N 32°47' W 061°33'0 0.0 22.6
2018-Jan-18 11:15N 32°47' W 061°33'1 3.1 22.6
2018-Jan-18 11:00N 32°47' W 061°32'0 0.0 22.6
2018-Jan-18 10:45N 32°47' W 061°32'2 7.7 22.6
2018-Jan-18 10:30N 32°46' W 061°31'2 1.9 22.7
2018-Jan-18 09:30N 32°44' W 061°29'0 0.0 22.7
2018-Jan-18 09:15N 32°44' W 061°29'0 0.0 22.7
2018-Jan-18 09:00N 32°44' W 061°29'7 5.4 22.7
2018-Jan-18 07:45N 32°41' W 061°22'0 0.0 22.7
2018-Jan-18 07:30N 32°41' W 061°22'1 0.2 22.7
2018-Jan-18 02:30N 32°42' W 061°20'0 0.0 22.6
2018-Jan-18 02:00N 32°42' W 061°20'1 4.7 22.6
2018-Jan-18 01:45N 32°41' W 061°19'0 0.0 22.6
2018-Jan-18 01:00N 32°41' W 061°19'1 2.0 22.5
2018-Jan-18 00:45N 32°41' W 061°19'0 0.0 22.5
2018-Jan-18 00:15N 32°41' W 061°19'1 4.7 22.5
2018-Jan-18 00:00N 32°42' W 061°17'0 0.0 22.5
2018-Jan-17 23:30N 32°42' W 061°17'2 6.3 22.5
2018-Jan-17 23:15N 32°41' W 061°16'0 0.0 22.5
2018-Jan-17 22:15N 32°41' W 061°16'2 6.3 22.5
2018-Jan-17 22:00N 32°40' W 061°15'1 3.1 22.5
2018-Jan-17 21:45N 32°40' W 061°16'1 1.6 22.5
2018-Jan-17 21:15N 32°40' W 061°15'2 6.3 22.3
2018-Jan-17 21:00N 32°38' W 061°14'0 0.0 22.2
2018-Jan-17 19:30N 32°38' W 061°14'414.1 21.8
2018-Jan-17 19:15N 32°37' W 061°10'0 0.0 21.7
2018-Jan-17 17:45N 32°37' W 061°10'417.7 21.6
2018-Jan-17 17:30N 32°35' W 061°05'0 0.0 21.6
2018-Jan-17 15:15N 32°35' W 061°05'2 2.6 21.5
2018-Jan-17 14:30N 32°34' W 061°04'0 0.0 21.5
2018-Jan-17 13:45N 32°34' W 061°04'0 0.0 21.4
2018-Jan-17 13:30N 32°34' W 061°04'1 2.4 21.4
2018-Jan-17 13:00N 32°33' W 061°02'1 2.0 21.4
2018-Jan-17 12:45N 32°33' W 061°02'0 0.0 21.4
2018-Jan-17 12:30N 32°33' W 061°02'2 7.7 21.4
2018-Jan-17 12:15N 32°32' W 061°00'0 0.0 21.4
2018-Jan-17 11:45N 32°32' W 061°00'0 0.0 21.4
2018-Jan-17 11:30N 32°32' W 061°00'1 4.0 21.4
2018-Jan-17 11:15N 32°32' W 060°59'2 3.3 21.4
2018-Jan-17 10:45N 32°31' W 060°57'0 0.0 21.4
2018-Jan-17 10:00N 32°31' W 060°57'0 0.0 21.4
2018-Jan-17 09:45N 32°31' W 060°57'312.4 21.4
2018-Jan-17 09:30N 32°29' W 060°54'0 0.0 21.4
2018-Jan-17 08:00N 32°29' W 060°54'520.6 21.4
2018-Jan-17 07:45N 32°27' W 060°49'0 0.0 21.4
2018-Jan-17 06:15N 32°27' W 060°49'0 0.0 21.4
2018-Jan-17 02:15N 32°27' W 060°49'1 5.2 21.6
2018-Jan-17 02:00N 32°26' W 060°48'1 0.7 21.6
2018-Jan-17 01:15N 32°26' W 060°47'0 0.0 21.6
2018-Jan-17 01:00N 32°26' W 060°47'1 2.4 21.6
2018-Jan-17 00:30N 32°25' W 060°46'0 0.0 21.6
2018-Jan-17 00:15N 32°25' W 060°46'1 2.4 21.6
2018-Jan-17 00:00N 32°25' W 060°46'1 1.0 21.6
2018-Jan-16 23:30N 32°25' W 060°47'0 0.0 21.5
2018-Jan-16 23:15N 32°25' W 060°47'2 2.1 21.5
2018-Jan-16 22:30N 32°23' W 060°46'1 5.2 21.6
2018-Jan-16 22:15N 32°22' W 060°45'0 0.0 21.6
2018-Jan-16 21:45N 32°22' W 060°45'312.6 21.6
2018-Jan-16 21:30N 32°20' W 060°43'0 0.0 21.6
2018-Jan-16 20:45N 32°20' W 060°43'11 0.8 21.5
2018-Jan-16 08:00N 32°11' W 060°36'0 0.0 21.9
2018-Jan-16 06:30N 32°11' W 060°36'312.7 21.9
2018-Jan-16 06:15N 32°08' W 060°35'0 0.0 21.9
2018-Jan-16 02:30N 32°08' W 060°35'0 0.0 21.9
2018-Jan-16 01:45N 32°08' W 060°35'1 3.1 21.9
2018-Jan-16 01:30N 32°07' W 060°34'0 0.0 21.9
2018-Jan-16 01:00N 32°07' W 060°34'1 2.0 21.9
2018-Jan-16 00:45N 32°07' W 060°35'1 2.4 21.9
2018-Jan-16 00:15N 32°07' W 060°34'1 2.0 21.9
2018-Jan-16 00:00N 32°07' W 060°34'1 2.0 21.9
2018-Jan-15 23:45N 32°07' W 060°34'0 0.0 21.9
2018-Jan-15 23:30N 32°07' W 060°34'1 1.6 21.9
2018-Jan-15 23:00N 32°06' W 060°34'1 2.0 21.9
2018-Jan-15 22:45N 32°06' W 060°34'1 4.7 21.9
2018-Jan-15 22:30N 32°05' W 060°35'0 0.0 21.9
2018-Jan-15 22:00N 32°05' W 060°35'0 0.0 21.9
2018-Jan-15 21:45N 32°05' W 060°35'2 3.9 21.9
2018-Jan-15 21:15N 32°04' W 060°33'0 0.0 21.9
2018-Jan-15 19:45N 32°04' W 060°33'3 0.7 21.9
2018-Jan-15 15:15N 32°02' W 060°31'0 0.0 21.9
2018-Jan-15 15:00N 32°02' W 060°31'1 1.0 21.9
2018-Jan-15 14:15N 32°01' W 060°30'1 0.7 21.9
2018-Jan-15 13:30N 32°01' W 060°29'0 0.0 21.9
2018-Jan-15 13:00N 32°01' W 060°29'1 2.4 21.8
2018-Jan-15 12:45N 32°02' W 060°29'1 2.4 21.8
2018-Jan-15 12:30N 32°01' W 060°29'1 2.4 21.8
2018-Jan-15 12:15N 32°02' W 060°29'1 0.8 21.8
2018-Jan-15 11:15N 32°01' W 060°29'1 2.0 21.8
2018-Jan-15 11:00N 32°01' W 060°29'1 2.4 21.8
2018-Jan-15 10:45N 32°01' W 060°29'1 3.1 21.8
2018-Jan-15 10:30N 32°01' W 060°29'1 0.3 21.8
2018-Jan-15 09:00N 32°01' W 060°29'0 0.0 21.8
2018-Jan-15 08:30N 32°01' W 060°29'1 3.1 21.8
2018-Jan-15 08:15N 32°01' W 060°29'1 0.5 21.8
2018-Jan-15 06:45N 32°01' W 060°29'2 7.5 21.8
2018-Jan-15 06:30N 31°59' W 060°29'0 0.0 21.8
2018-Jan-15 02:00N 31°59' W 060°29'1 3.1 21.7
2018-Jan-15 01:45N 32°00' W 060°28'0 0.0 21.7
2018-Jan-15 01:15N 32°00' W 060°28'1 3.1 21.7
2018-Jan-15 01:00N 31°59' W 060°29'0 0.0 21.6
2018-Jan-15 00:30N 31°59' W 060°29'1 2.4 21.4
2018-Jan-15 00:15N 32°00' W 060°29'0 0.0 21.4
2018-Jan-15 00:00N 32°00' W 060°29'0 0.0 21.4
2018-Jan-14 23:30N 32°00' W 060°29'0 0.0 21.3
2018-Jan-14 23:15N 32°00' W 060°29'1 2.6 21.4
2018-Jan-14 22:45N 31°59' W 060°28'0 0.0 21.3
2018-Jan-14 22:30N 31°59' W 060°28'0 0.0 21.3
2018-Jan-14 22:15N 31°59' W 060°28'0 0.0 21.3
2018-Jan-14 22:00N 31°59' W 060°28'0 0.0 21.3
2018-Jan-14 21:45N 31°59' W 060°28'1 0.6 21.3
2018-Jan-14 20:45N 31°58' W 060°28'0 0.0 21.4
2018-Jan-14 20:00N 31°58' W 060°28'1 2.4 21.4
2018-Jan-14 19:45N 31°58' W 060°28'2 1.4 21.4
2018-Jan-14 18:15N 31°56' W 060°27'0 0.0 21.3
2018-Jan-14 18:00N 31°56' W 060°27'1 0.2 21.4
2018-Jan-14 15:30N 31°56' W 060°26'0 0.0 21.4
2018-Jan-14 14:45N 31°56' W 060°26'1 3.1 21.4
2018-Jan-14 14:30N 31°55' W 060°26'0 0.0 21.4
2018-Jan-14 14:00N 31°55' W 060°26'0 0.0 21.4
2018-Jan-14 13:45N 31°55' W 060°26'1 0.8 21.4
2018-Jan-14 13:00N 31°55' W 060°26'0 0.0 21.4
2018-Jan-14 12:45N 31°55' W 060°26'0 0.0 21.4
2018-Jan-14 12:15N 31°55' W 060°26'0 0.0 21.4
2018-Jan-14 11:30N 31°55' W 060°26'1 2.4 21.4
2018-Jan-14 11:15N 31°54' W 060°26'2 7.5 21.4
2018-Jan-14 11:00N 31°56' W 060°26'3 1.9 21.4
2018-Jan-14 09:30N 31°53' W 060°25'1 0.6 21.4
2018-Jan-14 08:30N 31°53' W 060°25'0 0.0 21.4
2018-Jan-14 08:00N 31°53' W 060°25'0 0.0 21.4
2018-Jan-14 07:45N 31°53' W 060°25'0 0.0 21.4
2018-Jan-14 07:00N 31°53' W 060°25'312.0 21.4
2018-Jan-14 06:45N 31°50' W 060°25'0 0.0 21.4
2018-Jan-14 02:15N 31°50' W 060°25'1 0.7 21.4
2018-Jan-14 01:30N 31°50' W 060°24'1 1.4 21.4
2018-Jan-14 00:45N 31°50' W 060°25'0 0.0 21.4
2018-Jan-14 00:30N 31°50' W 060°25'1 1.6 21.4
2018-Jan-14 00:00N 31°49' W 060°25'0 0.0 21.4
2018-Jan-13 23:45N 31°49' W 060°25'1 1.7 21.4
2018-Jan-13 23:00N 31°48' W 060°25'0 0.0 21.4
2018-Jan-13 22:45N 31°48' W 060°25'15 0.5 21.5
2018-Jan-12 15:15N 31°46' W 060°43'0 0.0 21.4
2018-Jan-12 14:45N 31°46' W 060°43'1 2.0 21.4
2018-Jan-12 14:30N 31°46' W 060°43'0 0.0 21.4
2018-Jan-12 13:45N 31°46' W 060°43'0 0.0 21.4
2018-Jan-12 13:30N 31°46' W 060°43'1 2.4 21.4
2018-Jan-12 13:15N 31°47' W 060°43'1 2.4 21.4
2018-Jan-12 13:00N 31°46' W 060°43'0 0.0 21.4
2018-Jan-12 12:45N 31°46' W 060°43'2 1.6 21.4
2018-Jan-12 11:45N 31°47' W 060°45'1 1.0 21.4
2018-Jan-12 10:30N 31°48' W 060°45'0 0.0 21.4
2018-Jan-12 10:00N 31°48' W 060°45'1 1.2 21.4
2018-Jan-12 09:00N 31°49' W 060°46'0 0.0 21.4
2018-Jan-12 08:45N 31°49' W 060°46'3 2.1 21.4
2018-Jan-12 07:15N 31°51' W 060°49'0 0.0 21.4
2018-Jan-12 07:00N 31°51' W 060°49'0 0.0 21.4
2018-Jan-12 02:15N 31°51' W 060°49'1 4.1 21.5
2018-Jan-12 02:00N 31°51' W 060°50'1 1.0 21.5
2018-Jan-12 01:15N 31°52' W 060°49'1 0.7 21.5
2018-Jan-12 00:30N 31°52' W 060°49'0 0.0 21.5
2018-Jan-11 23:45N 31°52' W 060°49'1 4.1 21.5
2018-Jan-11 23:30N 31°52' W 060°50'0 0.0 21.5
2018-Jan-11 23:15N 31°52' W 060°50'1 0.5 21.5
2018-Jan-11 22:00N 31°52' W 060°50'1 2.4 21.5
2018-Jan-11 21:45N 31°52' W 060°50'0 0.0 21.5
2018-Jan-11 21:30N 31°52' W 060°50'0 0.0 21.5
2018-Jan-11 20:30N 31°52' W 060°50'1 5.2 21.5
2018-Jan-11 20:15N 31°53' W 060°50'2 1.4 21.5
2018-Jan-11 18:45N 31°55' W 060°52'0 0.0 21.5
2018-Jan-11 15:00N 31°55' W 060°52'1 2.4 21.4
2018-Jan-11 14:45N 31°55' W 060°52'0 0.0 21.4
2018-Jan-11 14:00N 31°55' W 060°52'0 0.0 21.4
2018-Jan-11 13:45N 31°55' W 060°52'0 0.0 21.4
2018-Jan-11 13:30N 31°55' W 060°52'1 2.0 21.4
2018-Jan-11 13:15N 31°55' W 060°52'0 0.0 21.4
2018-Jan-11 13:00N 31°55' W 060°52'0 0.0 21.4
2018-Jan-11 12:30N 31°55' W 060°52'0 0.0 21.3
2018-Jan-11 12:15N 31°55' W 060°52'1 2.4 21.4
2018-Jan-11 12:00N 31°56' W 060°52'0 0.0 21.4
2018-Jan-11 11:45N 31°56' W 060°52'0 0.0 21.4
2018-Jan-11 11:00N 31°56' W 060°52'   21.4

Dump ship's entire track history